Flight Track Log - Related Links

Times and Time Zones

All times are in EDT time to prevent confusion due to time zone crossing. See the N6519N flight status page for this flight to view local times or setup timezone preferences in your user account.

Time Position Orientation Groundspeed Altitude Reporting Facility
EDT Latitude Longitude Course Direction KTS MPH feet Rate Location/Type
Fri 08:48:46 AM 39.4000 -84.5500 66° East 136 157 1,700  Level Cincinnati TRACON
Fri 08:49:29 AM 39.4081 -84.5264 66° East 161 185 2,200 706 Climbing Indianapolis Center
Fri 08:50:11 AM 39.4261 -84.4972 51° Northeast 153 176 2,700 816 Climbing Indianapolis Center
Fri 08:51:12 AM 39.4703 -84.4969 360° North 145 167 3,600 885 Climbing Indianapolis Center
Fri 08:52:13 AM 39.5092 -84.4878 10° North 146 168 4,500 843 Climbing Indianapolis Center
Fri 08:53:13 AM 39.5367 -84.4492 47° Northeast 161 185 5,300 783 Climbing Indianapolis Center
Fri 08:54:08 AM 39.5658 -84.4111 45° Northeast 160 184 6,000 733 Climbing Indianapolis Center
Fri 08:54:43 AM 39.5786 -84.3917 50° Northeast 158 182 6,400 742 Climbing Indianapolis Center
Fri 08:55:45 AM 39.6117 -84.3539 41° Northeast 158 182 7,200 823 Climbing Indianapolis Center
Fri 08:56:47 AM 39.6483 -84.3197 36° Northeast 158 182 8,100 774 Climbing Indianapolis Center
Fri 08:57:49 AM 39.6906 -84.2731 40° Northeast 163 188 8,800 439 Climbing Indianapolis Center
Fri 08:58:50 AM 39.7272 -84.2317 41° Northeast 173 199 9,000 98 Climbing Indianapolis Center
Fri 08:59:52 AM 39.7644 -84.1856 44° Northeast 181 208 9,000  Level Indianapolis Center
Fri 09:00:54 AM 39.8019 -84.1444 40° Northeast 179 206 9,000  Level Indianapolis Center
Fri 09:01:56 AM 39.8347 -84.1022 45° Northeast 173 199 9,000  Level Indianapolis Center
Fri 09:02:57 AM 39.8683 -84.0586 45° Northeast 171 197 9,000  Level Indianapolis Center
Fri 09:03:59 AM 39.9122 -84.0061 43° Northeast 176 203 9,000  Level Indianapolis Center
Fri 09:05:01 AM 39.9461 -83.9631 44° Northeast 174 200 9,000  Level Indianapolis Center
Fri 09:06:03 AM 39.9836 -83.9186 42° Northeast 180 207 9,000  Level Indianapolis Center
Fri 09:07:05 AM 40.0175 -83.8753 44° Northeast 174 200 9,000  Level Indianapolis Center
Fri 09:08:07 AM 40.0533 -83.8311 43° Northeast 179 206 9,000  Level Indianapolis Center
Fri 09:09:09 AM 40.0944 -83.7797 44° Northeast 176 203 9,000  Level Indianapolis Center
Fri 09:10:10 AM 40.1292 -83.7350 45° Northeast 176 203 9,000  Level Indianapolis Center
Fri 09:11:12 AM 40.1658 -83.6900 43° Northeast 177 204 9,000  Level Indianapolis Center
Fri 09:12:14 AM 40.2025 -83.6456 43° Northeast 179 206 9,000  Level Indianapolis Center
Fri 09:13:16 AM 40.2372 -83.6003 45° Northeast 176 203 9,000  Level Indianapolis Center
Fri 09:14:18 AM 40.2725 -83.5567 43° Northeast 174 200 9,000  Level Indianapolis Center
Fri 09:15:20 AM 40.3067 -83.5117 45° Northeast 173 199 9,000  Level Indianapolis Center
Fri 09:16:26 AM 40.3503 -83.4603 42° Northeast 172 198 9,000 -49 Level Indianapolis Center
Fri 09:17:23 AM 40.3836 -83.4164 45° Northeast 174 200 8,900 -252 Descending Indianapolis Center
Fri 09:18:25 AM 40.4206 -83.3700 44° Northeast 180 207 8,500 -387 Descending Indianapolis Center
Fri 09:19:27 AM 40.4589 -83.3214 44° Northeast 186 214 8,100 -339 Descending Indianapolis Center
Fri 09:20:29 AM 40.4958 -83.2753 43° Northeast 184 212 7,800 -339 Descending Indianapolis Center
Fri 09:21:31 AM 40.5336 -83.2261 45° Northeast 186 214 7,400 -387 Descending Indianapolis Center
Fri 09:22:33 AM 40.5692 -83.1786 45° Northeast 184 212 7,000 -194 Descending Indianapolis Center
Fri 09:23:35 AM 40.6064 -83.1322 43° Northeast 182 209 7,000  Level Indianapolis Center
Fri 09:24:37 AM 40.6414 -83.0894 43° Northeast 176 203 7,000 -194 Level Indianapolis Center
Fri 09:25:39 AM 40.6817 -83.0372 45° Northeast 173 199 6,600 -339 Descending Indianapolis Center
Fri 09:26:41 AM 40.7186 -82.9889 45° Northeast 179 206 6,300 -339 Descending Indianapolis Center
Fri 09:27:43 AM 40.7550 -82.9406 45° Northeast 182 209 5,900 -435 Descending Indianapolis Center
Fri 09:28:45 AM 40.7933 -82.8936 43° Northeast 184 212 5,400 -435 Descending Indianapolis Center
Fri 09:29:47 AM 40.8314 -82.8461 43° Northeast 185 213 5,000 -387 Descending Indianapolis Center

Login

Don't have an account? Register now (free) for customized features, flight alerts, and more!